Decoded Metar for OITP (PARSABAD in IRAN) (IATA:N/A) | Meteo·Mobile Aviation Weather
aviador You're here:

OITP Decoded Metar

PARSABAD in IRAN
Report Time2019-01-16 17:00:00
UTC Time2019-01-16 17:57:51
Flight Rules vfr VFR
WindCalm
Visibility9999 m
Phenomena:N/A
Clouds:N/A
Expected CloudBase > 1,600 ft AGL from Temp-Dew spread
CeilingNone
Temp06°C (ISA -9)
Dew Point02°C (76% RH)
AAT4.3°C
QNH1003 hPa
Density Alt-335 ft
Elevation251 ft
Report Wrong Elevation
Raw Report
METAR OITP 161700Z 00000KT CAVOK 06/02 Q1003=

Extra information for OITP:More info

Metar Taf Metar & Taf Last 4 Metars F.Rules Stats Wind Profile Meteogram Temp Stats Airport Information Weather charts Add Link Nearby VenuesMetar ALERT Operation Metar Decoded Social comments